createdAt,value
2018-09-17T00:00:06.290Z,0.00
2018-09-17T00:01:06.268Z,0.00
2018-09-17T00:02:06.260Z,0.00
2018-09-17T00:03:06.248Z,0.00
2018-09-17T00:04:06.219Z,0.00
2018-09-17T00:05:06.202Z,0.00
2018-09-17T00:06:06.184Z,0.00
2018-09-17T00:07:06.177Z,0.00
2018-09-17T00:08:06.154Z,0.00
2018-09-17T00:09:06.143Z,0.00
2018-09-17T00:10:06.158Z,0.00
2018-09-17T00:11:06.099Z,0.00
2018-09-17T00:12:06.084Z,0.00
2018-09-17T00:13:06.066Z,0.00
2018-09-17T00:14:06.071Z,0.00
2018-09-17T00:15:06.031Z,0.00
2018-09-17T00:16:06.019Z,0.00
2018-09-17T00:17:05.998Z,0.00
2018-09-17T00:18:06.013Z,0.00
2018-09-17T00:19:05.964Z,0.00
2018-09-17T00:20:05.949Z,0.00
2018-09-17T00:21:05.931Z,0.00
2018-09-17T00:22:05.912Z,0.00
2018-09-17T00:23:05.897Z,0.00
2018-09-17T00:24:05.879Z,0.00
2018-09-17T00:25:05.861Z,0.00
2018-09-17T00:26:05.844Z,0.00
2018-09-17T00:27:05.828Z,0.00
2018-09-17T00:28:05.810Z,0.00
2018-09-17T00:29:05.792Z,0.00
2018-09-17T00:30:05.783Z,0.00
2018-09-17T00:31:05.763Z,0.00
2018-09-17T00:32:05.742Z,0.00
2018-09-17T00:33:05.725Z,0.00
2018-09-17T00:34:05.706Z,0.00
2018-09-17T00:35:05.689Z,0.00
2018-09-17T00:36:05.677Z,0.00
2018-09-17T00:37:05.663Z,0.00
2018-09-17T00:38:05.640Z,0.00
2018-09-17T00:39:05.631Z,0.00
2018-09-17T00:40:05.605Z,0.00
2018-09-17T00:41:05.671Z,0.00
2018-09-17T00:42:05.905Z,0.00
2018-09-17T00:43:06.376Z,0.00
2018-09-17T00:44:05.535Z,0.00
2018-09-17T00:45:05.518Z,0.00
2018-09-17T00:46:05.507Z,0.00
2018-09-17T00:47:05.486Z,0.00
2018-09-17T00:48:05.471Z,0.00
2018-09-17T00:49:05.450Z,0.00
2018-09-17T00:50:05.437Z,0.00
2018-09-17T00:51:05.423Z,0.00
2018-09-17T00:52:05.400Z,0.00
2018-09-17T00:53:05.380Z,0.00
2018-09-17T00:54:05.364Z,0.00
2018-09-17T00:55:05.344Z,0.00
2018-09-17T00:56:05.339Z,0.00
2018-09-17T00:57:05.311Z,0.00
2018-09-17T00:58:05.297Z,0.00
2018-09-17T00:59:05.280Z,0.00
2018-09-17T01:00:05.260Z,0.00
2018-09-17T01:01:05.245Z,0.00
2018-09-17T01:02:05.228Z,0.00
2018-09-17T01:03:05.209Z,0.00
2018-09-17T01:04:05.194Z,0.00
2018-09-17T01:05:05.175Z,0.00
2018-09-17T01:06:05.157Z,0.00
2018-09-17T01:07:05.148Z,0.00
2018-09-17T01:08:05.123Z,0.00
2018-09-17T01:09:05.104Z,0.00
2018-09-17T01:10:05.097Z,0.00
2018-09-17T01:11:05.189Z,0.00
2018-09-17T01:12:05.055Z,0.00
2018-09-17T01:13:05.036Z,0.00
2018-09-17T01:14:05.027Z,0.00
2018-09-17T01:15:05.004Z,0.00
2018-09-17T01:16:04.985Z,0.00
2018-09-17T01:17:04.965Z,0.00
2018-09-17T01:18:04.954Z,0.00
2018-09-17T01:19:04.933Z,0.00
2018-09-17T01:20:04.919Z,0.00
2018-09-17T01:21:04.902Z,0.00
2018-09-17T01:22:04.881Z,0.00
2018-09-17T01:23:04.862Z,0.00
2018-09-17T01:24:04.847Z,0.00
2018-09-17T01:25:04.829Z,0.00
2018-09-17T01:26:04.811Z,0.00
2018-09-17T01:27:04.794Z,0.00
2018-09-17T01:28:04.778Z,0.00
2018-09-17T01:29:04.762Z,0.00
2018-09-17T01:30:04.742Z,0.00
2018-09-17T01:31:04.732Z,0.00
2018-09-17T01:32:04.712Z,0.00
2018-09-17T01:33:04.698Z,0.00
2018-09-17T01:34:04.672Z,0.00
2018-09-17T01:35:04.662Z,0.00
2018-09-17T01:36:04.643Z,0.00
2018-09-17T01:37:04.620Z,0.00
2018-09-17T01:38:04.602Z,0.00
2018-09-17T01:39:04.590Z,0.00
2018-09-17T01:40:04.570Z,0.00
2018-09-17T01:41:04.552Z,0.00
2018-09-17T01:42:04.532Z,0.00
2018-09-17T01:43:04.516Z,0.00
2018-09-17T01:44:04.500Z,0.00
2018-09-17T01:45:04.482Z,0.00
2018-09-17T01:46:04.582Z,0.00
2018-09-17T01:47:04.449Z,0.00
2018-09-17T01:48:04.429Z,0.00
2018-09-17T01:49:04.410Z,0.00
2018-09-17T01:50:04.395Z,0.00
2018-09-17T01:51:04.381Z,0.00
2018-09-17T01:52:04.362Z,0.00
2018-09-17T01:53:04.350Z,0.00
2018-09-17T01:54:04.328Z,0.00
2018-09-17T01:55:04.308Z,0.00
2018-09-17T01:56:04.289Z,0.00
2018-09-17T01:57:04.310Z,0.00
2018-09-17T01:58:04.254Z,0.00
2018-09-17T01:59:04.238Z,0.00
2018-09-17T02:00:04.227Z,0.00
2018-09-17T02:01:04.201Z,0.00
2018-09-17T02:02:04.200Z,0.00
2018-09-17T02:03:04.167Z,0.00
2018-09-17T02:04:04.155Z,0.00
2018-09-17T02:05:04.131Z,0.00
2018-09-17T02:06:04.115Z,0.00
2018-09-17T02:07:04.096Z,0.00
2018-09-17T02:08:04.113Z,0.00
2018-09-17T02:09:04.127Z,0.00
2018-09-17T02:10:04.116Z,0.00
2018-09-17T02:11:04.026Z,0.00
2018-09-17T02:12:04.011Z,0.00
2018-09-17T02:13:03.992Z,0.00
2018-09-17T02:14:03.974Z,0.00
2018-09-17T02:15:03.967Z,0.00
2018-09-17T02:16:03.937Z,0.00
2018-09-17T02:17:03.928Z,0.00
2018-09-17T02:18:03.904Z,0.00
2018-09-17T02:19:03.886Z,0.00
2018-09-17T02:20:03.879Z,0.00
2018-09-17T02:21:03.851Z,0.00
2018-09-17T02:22:03.833Z,0.00
2018-09-17T02:23:03.826Z,0.00
2018-09-17T02:24:03.800Z,0.00
2018-09-17T02:25:03.781Z,0.00
2018-09-17T02:26:03.765Z,0.00
2018-09-17T02:27:03.752Z,0.00
2018-09-17T02:28:03.727Z,0.00
2018-09-17T02:29:03.709Z,0.00
2018-09-17T02:30:03.694Z,0.00
2018-09-17T02:31:03.685Z,0.00
2018-09-17T02:32:03.656Z,0.00
2018-09-17T02:33:03.641Z,0.00
2018-09-17T02:34:03.628Z,0.00
2018-09-17T02:35:03.606Z,0.00
2018-09-17T02:36:03.606Z,0.00
2018-09-17T02:37:03.569Z,0.00
2018-09-17T02:38:03.552Z,0.00
2018-09-17T02:39:03.534Z,0.00
2018-09-17T02:40:03.525Z,0.00
2018-09-17T02:41:03.502Z,0.00
2018-09-17T02:42:03.482Z,0.00
2018-09-17T02:43:03.491Z,0.00
2018-09-17T02:44:03.445Z,0.00
2018-09-17T02:45:03.428Z,0.00
2018-09-17T02:46:03.411Z,0.00
2018-09-17T02:47:03.393Z,0.00
2018-09-17T02:48:03.375Z,0.00
2018-09-17T02:49:03.358Z,0.00
2018-09-17T02:50:03.340Z,0.00
2018-09-17T02:51:03.323Z,0.00
2018-09-17T02:52:03.305Z,0.00
2018-09-17T02:53:03.286Z,0.00
2018-09-17T02:54:03.269Z,0.00
2018-09-17T02:55:03.253Z,0.00
2018-09-17T02:56:03.234Z,0.00
2018-09-17T02:57:03.219Z,0.00
2018-09-17T02:58:03.199Z,0.00
2018-09-17T02:59:03.184Z,0.00
2018-09-17T03:00:03.165Z,0.00
2018-09-17T03:01:03.144Z,0.00
2018-09-17T03:02:03.135Z,0.00
2018-09-17T03:03:03.110Z,0.00
2018-09-17T03:04:03.092Z,0.00
2018-09-17T03:05:03.157Z,0.00
2018-09-17T03:06:03.058Z,0.00
2018-09-17T03:07:03.043Z,0.00
2018-09-17T03:08:03.023Z,0.00
2018-09-17T03:09:03.007Z,0.00
2018-09-17T03:10:02.985Z,0.00
2018-09-17T03:11:02.976Z,0.00
2018-09-17T03:12:02.950Z,0.00
2018-09-17T03:13:02.932Z,0.00
2018-09-17T03:14:02.917Z,0.00
2018-09-17T03:15:02.896Z,0.00
2018-09-17T03:16:02.883Z,0.00
2018-09-17T03:17:02.861Z,0.00
2018-09-17T03:18:02.845Z,0.00
2018-09-17T03:19:02.829Z,0.00
2018-09-17T03:20:02.810Z,0.00
2018-09-17T03:21:02.791Z,0.00
2018-09-17T03:22:02.774Z,0.00
2018-09-17T03:23:02.755Z,0.00
2018-09-17T03:24:02.751Z,0.00
2018-09-17T03:25:02.723Z,0.00
2018-09-17T03:26:02.701Z,0.00
2018-09-17T03:27:02.685Z,0.00
2018-09-17T03:28:02.666Z,0.00
2018-09-17T03:29:02.650Z,0.00
2018-09-17T03:30:02.636Z,0.00
2018-09-17T03:31:02.613Z,0.00
2018-09-17T03:32:02.594Z,0.00
2018-09-17T03:33:02.578Z,0.00
2018-09-17T03:34:02.559Z,0.00
2018-09-17T03:35:02.545Z,0.00
2018-09-17T03:36:02.527Z,0.00
2018-09-17T03:37:02.503Z,0.00
2018-09-17T03:38:02.486Z,0.00
2018-09-17T03:39:02.469Z,0.00
2018-09-17T03:40:02.452Z,0.00
2018-09-17T03:41:02.433Z,0.00
2018-09-17T03:42:02.416Z,0.00
2018-09-17T03:43:02.400Z,0.00
2018-09-17T03:44:02.379Z,0.00
2018-09-17T03:45:02.361Z,0.00
2018-09-17T03:46:02.344Z,0.00
2018-09-17T03:47:02.326Z,0.00
2018-09-17T03:48:02.309Z,0.00
2018-09-17T03:49:02.289Z,0.00
2018-09-17T03:50:02.272Z,0.00
2018-09-17T03:51:02.254Z,0.00
2018-09-17T03:52:02.236Z,0.00
2018-09-17T03:53:02.217Z,0.00
2018-09-17T03:54:02.201Z,0.00
2018-09-17T03:55:02.183Z,0.00
2018-09-17T03:56:02.163Z,0.00
2018-09-17T03:57:02.163Z,0.00
2018-09-17T03:58:02.126Z,0.00
2018-09-17T03:59:02.110Z,0.00
2018-09-17T04:00:02.101Z,0.00
2018-09-17T04:01:02.075Z,0.00
2018-09-17T04:02:02.056Z,0.00
2018-09-17T04:03:02.042Z,0.00
2018-09-17T04:04:02.021Z,0.00
2018-09-17T04:05:02.005Z,0.00
2018-09-17T04:06:01.985Z,0.00
2018-09-17T04:07:02.120Z,0.00
2018-09-17T04:08:01.949Z,0.00
2018-09-17T04:09:01.931Z,0.00
2018-09-17T04:10:01.962Z,0.00
2018-09-17T04:11:01.894Z,0.00
2018-09-17T04:12:01.877Z,0.00
2018-09-17T04:13:01.858Z,0.00
2018-09-17T04:14:01.850Z,0.00
2018-09-17T04:15:01.826Z,0.00
2018-09-17T04:16:01.808Z,0.00
2018-09-17T04:17:01.786Z,0.00
2018-09-17T04:18:01.778Z,0.00
2018-09-17T04:19:01.758Z,0.00
2018-09-17T04:20:01.738Z,0.00
2018-09-17T04:21:01.719Z,0.00
2018-09-17T04:22:01.697Z,0.00
2018-09-17T04:23:01.686Z,0.00
2018-09-17T04:24:01.666Z,0.00
2018-09-17T04:25:01.643Z,0.00
2018-09-17T04:26:01.634Z,0.00
2018-09-17T04:27:01.608Z,0.00
2018-09-17T04:28:01.589Z,0.00
2018-09-17T04:29:01.580Z,0.00
2018-09-17T04:30:01.556Z,0.00
2018-09-17T04:31:01.563Z,0.00
2018-09-17T04:32:01.520Z,0.00
2018-09-17T04:33:01.515Z,0.00
2018-09-17T04:34:01.484Z,0.00
2018-09-17T04:35:01.469Z,0.00
2018-09-17T04:36:01.445Z,0.00
2018-09-17T04:37:01.446Z,0.00
2018-09-17T04:38:01.409Z,0.00
2018-09-17T04:39:01.397Z,0.00
2018-09-17T04:40:01.373Z,0.00
2018-09-17T04:41:01.363Z,0.00
2018-09-17T04:42:01.341Z,0.00
2018-09-17T04:43:01.338Z,0.00
2018-09-17T04:44:01.310Z,0.00
2018-09-17T04:45:01.291Z,0.00
2018-09-17T04:46:01.265Z,0.00
2018-09-17T04:47:01.247Z,0.00
2018-09-17T04:48:01.234Z,0.00
2018-09-17T04:49:01.211Z,0.00
2018-09-17T04:50:01.196Z,0.00
2018-09-17T04:51:01.178Z,0.00
2018-09-17T04:52:01.158Z,0.00
2018-09-17T04:53:01.140Z,0.00
2018-09-17T04:54:01.121Z,0.00
2018-09-17T04:55:01.138Z,0.00
2018-09-17T04:56:01.252Z,0.00
2018-09-17T04:57:01.068Z,5.63
2018-09-17T04:58:01.049Z,5.63
2018-09-17T04:59:01.135Z,5.63
2018-09-17T05:00:01.015Z,5.63
2018-09-17T05:01:00.994Z,5.63
2018-09-17T05:02:00.977Z,5.63
2018-09-17T05:03:00.959Z,5.63
2018-09-17T05:04:00.942Z,5.63
2018-09-17T05:05:00.932Z,5.63
2018-09-17T05:06:00.907Z,5.63
2018-09-17T05:07:00.889Z,11.25
2018-09-17T05:08:00.869Z,11.25
2018-09-17T05:09:00.849Z,11.25
2018-09-17T05:10:00.831Z,11.25
2018-09-17T05:11:00.816Z,11.25
2018-09-17T05:12:00.797Z,11.25
2018-09-17T05:13:00.808Z,16.88
2018-09-17T05:14:00.762Z,16.88
2018-09-17T05:15:00.752Z,16.88
2018-09-17T05:16:00.752Z,16.88
2018-09-17T05:17:00.706Z,22.50
2018-09-17T05:18:00.689Z,22.50
2018-09-17T05:19:00.672Z,22.50
2018-09-17T05:20:00.656Z,28.13
2018-09-17T05:21:00.634Z,28.13
2018-09-17T05:22:00.622Z,28.13
2018-09-17T05:23:00.598Z,28.13
2018-09-17T05:24:00.581Z,33.75
2018-09-17T05:25:01.775Z,33.75
2018-09-17T05:26:00.645Z,33.75
2018-09-17T05:27:49.705Z,39.38
2018-09-17T05:28:49.697Z,39.38
2018-09-17T05:29:49.668Z,45.00
2018-09-17T05:30:49.659Z,45.00
2018-09-17T05:31:49.631Z,50.63
2018-09-17T05:32:49.618Z,50.63
2018-09-17T05:33:49.650Z,56.25
2018-09-17T05:34:49.581Z,56.25
2018-09-17T05:35:49.562Z,61.88
2018-09-17T05:36:49.751Z,61.88
2018-09-17T05:37:49.536Z,67.50
2018-09-17T05:38:49.509Z,67.50
2018-09-17T05:39:49.507Z,67.50
2018-09-17T05:40:49.474Z,67.50
2018-09-17T05:41:49.468Z,67.50
2018-09-17T05:42:49.446Z,73.13
2018-09-17T05:43:49.422Z,73.13
2018-09-17T05:44:49.479Z,78.75
2018-09-17T05:45:49.394Z,78.75
2018-09-17T05:46:49.370Z,84.38
2018-09-17T05:47:49.398Z,84.38
2018-09-17T05:48:49.328Z,90.00
2018-09-17T05:49:49.310Z,95.63
2018-09-17T05:50:49.293Z,95.63
2018-09-17T05:51:49.285Z,101.25
2018-09-17T05:52:49.259Z,101.25
2018-09-17T05:53:49.310Z,106.88
2018-09-17T05:54:49.231Z,112.50
2018-09-17T05:55:49.216Z,118.13
2018-09-17T05:56:49.191Z,118.13
2018-09-17T05:57:49.170Z,123.75
2018-09-17T05:58:49.153Z,129.38
2018-09-17T05:59:49.134Z,129.38
2018-09-17T06:00:49.123Z,135.00
2018-09-17T06:01:49.100Z,135.00
2018-09-17T06:02:49.081Z,140.63
2018-09-17T06:03:49.064Z,140.63
2018-09-17T06:04:49.045Z,140.63
2018-09-17T06:05:49.041Z,140.63
2018-09-17T06:06:49.013Z,146.25
2018-09-17T06:07:48.995Z,146.25
2018-09-17T06:08:48.981Z,146.25
2018-09-17T06:09:49.073Z,151.88
2018-09-17T06:10:48.947Z,151.88
2018-09-17T06:11:48.964Z,151.88
2018-09-17T06:12:48.906Z,151.88
2018-09-17T06:13:48.892Z,151.88
2018-09-17T06:14:48.874Z,151.88
2018-09-17T06:15:48.860Z,151.88
2018-09-17T06:16:48.836Z,151.88
2018-09-17T06:17:48.823Z,151.88
2018-09-17T06:18:48.801Z,151.88
2018-09-17T06:19:48.784Z,151.88
2018-09-17T06:20:48.775Z,151.88
2018-09-17T06:21:48.751Z,157.50
2018-09-17T06:22:48.732Z,157.50
2018-09-17T06:23:48.714Z,157.50
2018-09-17T06:24:48.697Z,157.50
2018-09-17T06:25:48.690Z,157.50
2018-09-17T06:26:48.662Z,157.50
2018-09-17T06:27:48.648Z,157.50
2018-09-17T06:28:48.742Z,157.50
2018-09-17T06:29:48.615Z,157.50
2018-09-17T06:30:48.597Z,157.50
2018-09-17T06:31:48.575Z,157.50
2018-09-17T06:32:48.563Z,157.50
2018-09-17T06:33:48.642Z,157.50
2018-09-17T06:34:48.525Z,157.50
2018-09-17T06:35:48.512Z,157.50
2018-09-17T06:36:48.493Z,157.50
2018-09-17T06:37:48.481Z,157.50
2018-09-17T06:38:48.456Z,163.13
2018-09-17T06:39:48.439Z,163.13
2018-09-17T06:40:48.423Z,163.13
2018-09-17T06:41:48.409Z,168.75
2018-09-17T06:42:48.395Z,174.38
2018-09-17T06:43:48.380Z,174.38
2018-09-17T06:44:48.412Z,180.00
2018-09-17T06:45:48.339Z,180.00
2018-09-17T06:46:48.318Z,180.00
2018-09-17T06:47:48.350Z,180.00
2018-09-17T06:48:48.287Z,185.63
2018-09-17T06:49:48.269Z,191.25
2018-09-17T06:50:48.251Z,196.88
2018-09-17T06:51:48.234Z,196.88
2018-09-17T06:52:48.288Z,202.50
2018-09-17T06:53:48.213Z,202.50
2018-09-17T06:54:48.185Z,208.13
2018-09-17T06:55:48.176Z,208.13
2018-09-17T06:56:48.150Z,208.13
2018-09-17T06:57:48.132Z,208.13
2018-09-17T06:58:48.119Z,202.50
2018-09-17T06:59:48.097Z,202.50
2018-09-17T07:00:48.081Z,202.50
2018-09-17T07:01:48.065Z,196.88
2018-09-17T07:02:48.048Z,196.88
2018-09-17T07:03:48.029Z,191.25
2018-09-17T07:04:48.017Z,191.25
2018-09-17T07:05:47.995Z,185.63
2018-09-17T07:06:47.990Z,191.25
2018-09-17T07:07:47.974Z,191.25
2018-09-17T07:08:48.127Z,196.88
2018-09-17T07:09:47.927Z,196.88
2018-09-17T07:10:47.910Z,196.88
2018-09-17T07:11:47.894Z,196.88
2018-09-17T07:12:47.885Z,196.88
2018-09-17T07:13:47.863Z,196.88
2018-09-17T07:14:47.850Z,196.88
2018-09-17T07:15:47.823Z,202.50
2018-09-17T07:16:47.809Z,202.50
2018-09-17T07:17:47.789Z,202.50
2018-09-17T07:18:47.776Z,202.50
2018-09-17T07:19:47.760Z,208.13
2018-09-17T07:20:47.743Z,208.13
2018-09-17T07:21:47.731Z,208.13
2018-09-17T07:22:47.705Z,213.75
2018-09-17T07:23:47.691Z,213.75
2018-09-17T07:24:47.676Z,213.75
2018-09-17T07:25:47.656Z,219.38
2018-09-17T07:26:47.637Z,219.38
2018-09-17T07:27:47.630Z,219.38
2018-09-17T07:28:47.605Z,219.38
2018-09-17T07:29:47.588Z,219.38
2018-09-17T07:30:47.576Z,219.38
2018-09-17T07:31:47.555Z,225.00
2018-09-17T07:32:47.543Z,230.63
2018-09-17T07:33:47.523Z,236.25
2018-09-17T07:34:47.508Z,241.88
2018-09-17T07:35:47.486Z,236.25
2018-09-17T07:36:47.470Z,241.88
2018-09-17T07:37:47.462Z,241.88
2018-09-17T07:38:47.440Z,247.50
2018-09-17T07:39:47.432Z,253.13
2018-09-17T07:40:47.410Z,258.75
2018-09-17T07:41:47.396Z,264.38
2018-09-17T07:42:47.396Z,270.00
2018-09-17T07:43:47.361Z,275.63
2018-09-17T07:44:47.338Z,298.13
2018-09-17T07:45:47.322Z,320.63
2018-09-17T07:46:47.349Z,292.50
2018-09-17T07:47:47.291Z,303.75
2018-09-17T07:48:47.271Z,309.38
2018-09-17T07:49:47.257Z,320.63
2018-09-17T07:50:47.252Z,326.25
2018-09-17T07:51:47.222Z,337.50
2018-09-17T07:52:47.212Z,348.75
2018-09-17T07:53:47.210Z,360.00
2018-09-17T07:54:47.172Z,371.25
2018-09-17T07:55:47.156Z,382.50
2018-09-17T07:56:47.148Z,399.38
2018-09-17T07:57:47.184Z,410.63
2018-09-17T07:58:47.128Z,427.50
2018-09-17T07:59:47.095Z,545.63
2018-09-17T08:00:47.082Z,461.25
2018-09-17T08:01:47.063Z,534.38
2018-09-17T08:02:47.049Z,787.50
2018-09-17T08:03:47.027Z,804.38
2018-09-17T08:04:47.014Z,770.63
2018-09-17T08:05:47.045Z,506.25
2018-09-17T08:06:46.987Z,483.75
2018-09-17T08:07:46.967Z,478.13
2018-09-17T08:08:46.950Z,478.13
2018-09-17T08:09:46.934Z,489.38
2018-09-17T08:10:46.917Z,506.25
2018-09-17T08:11:46.914Z,506.25
2018-09-17T08:12:46.888Z,489.38
2018-09-17T08:13:46.872Z,483.75
2018-09-17T08:14:46.860Z,478.13
2018-09-17T08:15:46.842Z,483.75
2018-09-17T08:16:46.840Z,495.00
2018-09-17T08:17:46.819Z,506.25
2018-09-17T08:18:46.794Z,500.63
2018-09-17T08:19:46.862Z,506.25
2018-09-17T08:20:46.765Z,511.88
2018-09-17T08:21:46.756Z,511.88
2018-09-17T08:22:46.732Z,534.38
2018-09-17T08:23:46.719Z,596.25
2018-09-17T08:24:46.713Z,528.75
2018-09-17T08:25:46.690Z,618.75
2018-09-17T08:26:46.682Z,613.13
2018-09-17T08:27:46.660Z,556.88
2018-09-17T08:28:46.645Z,540.00
2018-09-17T08:29:46.636Z,523.13
2018-09-17T08:30:46.623Z,511.88
2018-09-17T08:31:46.604Z,500.63
2018-09-17T08:32:46.594Z,500.63
2018-09-17T08:33:46.572Z,495.00
2018-09-17T08:34:46.558Z,483.75
2018-09-17T08:35:46.557Z,495.00
2018-09-17T08:36:46.532Z,523.13
2018-09-17T08:37:46.523Z,528.75
2018-09-17T08:38:46.514Z,506.25
2018-09-17T08:39:46.497Z,540.00
2018-09-17T08:40:46.472Z,585.00
2018-09-17T08:41:46.459Z,495.00
2018-09-17T08:42:46.443Z,472.50
2018-09-17T08:43:46.484Z,461.25
2018-09-17T08:44:46.418Z,478.13
2018-09-17T08:45:46.408Z,590.63
2018-09-17T08:46:46.392Z,500.63
2018-09-17T08:47:46.381Z,523.13
2018-09-17T08:48:46.367Z,534.38
2018-09-17T08:49:46.348Z,545.63
2018-09-17T08:50:46.330Z,607.50
2018-09-17T08:51:46.324Z,646.88
2018-09-17T08:52:46.397Z,821.25
2018-09-17T08:53:46.289Z,1473.75
2018-09-17T08:54:46.277Z,1895.63
2018-09-17T08:55:46.263Z,1659.38
2018-09-17T08:56:46.245Z,2008.13
2018-09-17T08:57:46.235Z,2205.00
2018-09-17T08:58:46.232Z,1636.88
2018-09-17T08:59:46.220Z,883.13
2018-09-17T09:00:46.195Z,658.13
2018-09-17T09:01:46.188Z,742.50
2018-09-17T09:02:46.171Z,613.13
2018-09-17T09:03:46.164Z,568.13
2018-09-17T09:04:46.223Z,815.63
2018-09-17T09:05:46.130Z,590.63
2018-09-17T09:06:46.124Z,585.00
2018-09-17T09:07:46.113Z,708.75
2018-09-17T09:08:46.109Z,585.00
2018-09-17T09:09:46.089Z,590.63
2018-09-17T09:10:46.069Z,635.63
2018-09-17T09:11:46.063Z,855.00
2018-09-17T09:12:46.042Z,945.00
2018-09-17T09:13:46.040Z,1051.88
2018-09-17T09:14:46.017Z,1288.13
2018-09-17T09:15:46.011Z,1153.13
2018-09-17T09:16:45.995Z,759.38
2018-09-17T09:17:45.982Z,675.00
2018-09-17T09:18:45.976Z,742.50
2018-09-17T09:19:45.961Z,646.88
2018-09-17T09:20:45.941Z,691.88
2018-09-17T09:21:45.929Z,815.63
2018-09-17T09:22:45.924Z,714.38
2018-09-17T09:23:45.912Z,1119.38
2018-09-17T09:24:45.891Z,697.50
2018-09-17T09:25:45.881Z,1108.13
2018-09-17T09:26:45.880Z,787.50
2018-09-17T09:27:45.855Z,1653.75
2018-09-17T09:28:45.841Z,1743.75
2018-09-17T09:29:45.849Z,1108.13
2018-09-17T09:30:45.849Z,1350.00
2018-09-17T09:31:45.806Z,1237.50
2018-09-17T09:32:45.794Z,1743.75
2018-09-17T09:33:45.790Z,1771.88
2018-09-17T09:34:45.771Z,1794.38
2018-09-17T09:35:45.768Z,1845.00
2018-09-17T09:36:45.748Z,2261.25
2018-09-17T09:37:45.741Z,2295.00
2018-09-17T09:38:45.725Z,2165.63
2018-09-17T09:39:45.713Z,1918.13
2018-09-17T09:40:45.754Z,2126.25
2018-09-17T09:41:45.692Z,2081.25
2018-09-17T09:42:45.682Z,2221.88
2018-09-17T09:43:45.673Z,2131.88
2018-09-17T09:44:45.662Z,2120.63
2018-09-17T09:45:45.656Z,2210.63
2018-09-17T09:46:45.644Z,2092.50
2018-09-17T09:47:45.633Z,2025.00
2018-09-17T09:48:45.624Z,1929.38
2018-09-17T09:50:44.329Z,1963.13
2018-09-17T09:51:44.313Z,2064.38
2018-09-17T09:52:44.343Z,2002.50
2018-09-17T09:53:44.301Z,1957.50
2018-09-17T09:54:44.287Z,1873.13
2018-09-17T09:55:44.279Z,1800.00
2018-09-17T09:56:44.271Z,1800.00
2018-09-17T09:57:44.263Z,1828.13
2018-09-17T09:58:44.256Z,1704.38
2018-09-17T09:59:44.259Z,1726.88
2018-09-17T10:00:44.241Z,1777.50
2018-09-17T10:01:44.233Z,1946.25
2018-09-17T10:02:44.231Z,2250.00
2018-09-17T10:03:44.217Z,2306.25
2018-09-17T10:04:44.207Z,2266.88
2018-09-17T10:05:44.204Z,2182.50
2018-09-17T10:06:44.193Z,2205.00
2018-09-17T10:07:44.186Z,2188.13
2018-09-17T10:08:44.182Z,2216.25
2018-09-17T10:09:44.180Z,2165.63
2018-09-17T10:10:45.582Z,2216.25
2018-09-17T10:11:44.210Z,2250.00
2018-09-17T10:12:44.150Z,2216.25
2018-09-17T10:13:44.160Z,2266.88
2018-09-17T10:14:44.647Z,2334.38
2018-09-17T10:15:44.133Z,2401.88
2018-09-17T10:16:44.124Z,2390.63
2018-09-17T10:17:44.116Z,2407.50
2018-09-17T10:18:44.111Z,2328.75
2018-09-17T10:19:44.105Z,2475.00
2018-09-17T10:20:44.115Z,2401.88
2018-09-17T10:21:44.093Z,2385.00
2018-09-17T10:22:44.088Z,2323.13
2018-09-17T10:23:44.083Z,2328.75
2018-09-17T10:24:44.087Z,2379.38
2018-09-17T10:25:44.079Z,2300.63
2018-09-17T10:26:44.066Z,2261.25
2018-09-17T10:27:44.063Z,2345.63
2018-09-17T10:28:44.064Z,2491.88
2018-09-17T10:29:44.056Z,2570.63
2018-09-17T10:30:44.045Z,2570.63
2018-09-17T10:31:44.037Z,2621.25
2018-09-17T10:32:44.030Z,2812.50
2018-09-17T10:33:44.036Z,2868.75
2018-09-17T10:34:44.020Z,2812.50
2018-09-17T10:35:44.016Z,2885.63
2018-09-17T10:36:44.008Z,2851.88
2018-09-17T10:37:44.007Z,2936.25
2018-09-17T10:38:44.002Z,2941.88
2018-09-17T10:39:43.997Z,2840.63
2018-09-17T10:40:43.989Z,2778.75
2018-09-17T10:41:43.986Z,2773.13
2018-09-17T10:42:43.986Z,2874.38
2018-09-17T10:43:43.980Z,2818.13
2018-09-17T10:44:43.986Z,2812.50
2018-09-17T10:45:43.969Z,2722.50
2018-09-17T10:46:43.976Z,2688.75
2018-09-17T10:47:44.015Z,2621.25
2018-09-17T10:48:43.957Z,2615.63
2018-09-17T10:49:43.959Z,2711.25
2018-09-17T10:50:43.948Z,2795.63
2018-09-17T10:51:43.948Z,2857.50
2018-09-17T10:52:43.941Z,2761.88
2018-09-17T10:53:43.937Z,2863.13
2018-09-17T10:54:43.940Z,2964.38
2018-09-17T10:55:43.928Z,2666.25
2018-09-17T10:56:43.923Z,2688.75
2018-09-17T10:57:43.921Z,2863.13
2018-09-17T10:58:47.677Z,2958.75
2018-09-17T10:59:43.925Z,2784.38
2018-09-17T11:00:47.946Z,2643.75
2018-09-17T11:01:43.918Z,2441.25
2018-09-17T11:02:43.904Z,2182.50
2018-09-17T11:03:43.903Z,2390.63
2018-09-17T11:04:43.892Z,2205.00
2018-09-17T11:05:43.889Z,2182.50
2018-09-17T11:06:43.894Z,2379.38
2018-09-17T11:07:43.893Z,2441.25
2018-09-17T11:08:43.877Z,2553.75
2018-09-17T11:09:43.872Z,2671.88
2018-09-17T11:10:43.869Z,2739.38
2018-09-17T11:11:43.867Z,2851.88
2018-09-17T11:12:43.876Z,2868.75
2018-09-17T11:13:43.856Z,2846.25
2018-09-17T11:14:43.858Z,2981.25
2018-09-17T11:15:43.901Z,2908.13
2018-09-17T11:16:43.843Z,2621.25
2018-09-17T11:17:43.963Z,2851.88
2018-09-17T11:18:43.891Z,2998.13
2018-09-17T11:19:43.834Z,3009.38
2018-09-17T11:20:43.852Z,2975.63
2018-09-17T11:21:43.832Z,2694.38
2018-09-17T11:22:43.821Z,2418.75
2018-09-17T11:23:43.833Z,2542.50
2018-09-17T11:24:43.813Z,2818.13
2018-09-17T11:25:43.810Z,2919.38
2018-09-17T11:26:43.815Z,2733.75
2018-09-17T11:27:43.805Z,2953.13
2018-09-17T11:28:43.798Z,2930.63
2018-09-17T11:29:43.795Z,2733.75
2018-09-17T11:30:43.791Z,2784.38
2018-09-17T11:31:43.787Z,2745.00
2018-09-17T11:32:43.783Z,2649.38
2018-09-17T11:33:43.786Z,2435.63
2018-09-17T11:34:43.777Z,2626.88
2018-09-17T11:35:43.774Z,2531.25
2018-09-17T11:36:43.766Z,2446.88
2018-09-17T11:37:43.762Z,2334.38
2018-09-17T11:38:43.757Z,2300.63
2018-09-17T11:39:43.753Z,2176.88
2018-09-17T11:40:43.748Z,2205.00
2018-09-17T11:41:43.743Z,2120.63
2018-09-17T11:42:43.747Z,2030.63
2018-09-17T11:43:43.735Z,2002.50
2018-09-17T11:44:43.730Z,1794.38
2018-09-17T11:45:43.731Z,1569.38
2018-09-17T11:46:43.743Z,1108.13
2018-09-17T11:47:43.725Z,725.63
2018-09-17T11:48:43.712Z,624.38
2018-09-17T11:49:43.702Z,585.00
2018-09-17T11:50:43.695Z,573.75
2018-09-17T11:51:43.698Z,545.63
2018-09-17T11:52:43.695Z,528.75
2018-09-17T11:53:43.681Z,523.13
2018-09-17T11:54:43.681Z,506.25
2018-09-17T11:55:43.691Z,500.63
2018-09-17T11:56:43.660Z,500.63
2018-09-17T11:57:43.654Z,506.25
2018-09-17T11:58:43.647Z,495.00
2018-09-17T11:59:43.641Z,489.38
2018-09-17T12:00:43.638Z,489.38
2018-09-17T12:01:43.681Z,478.13
2018-09-17T12:02:43.619Z,483.75
2018-09-17T12:03:43.612Z,478.13
2018-09-17T12:04:43.607Z,472.50
2018-09-17T12:05:43.657Z,466.88
2018-09-17T12:06:43.598Z,455.63
2018-09-17T12:07:43.612Z,438.75
2018-09-17T12:08:43.581Z,438.75
2018-09-17T12:09:43.573Z,433.13
2018-09-17T12:10:43.562Z,438.75
2018-09-17T12:11:43.559Z,433.13
2018-09-17T12:12:43.543Z,433.13
2018-09-17T12:13:43.535Z,427.50
2018-09-17T12:14:43.526Z,421.88
2018-09-17T12:15:43.518Z,421.88
2018-09-17T12:17:43.503Z,410.63
2018-09-17T12:18:43.494Z,405.00
2018-09-17T12:21:27.511Z,393.75
2018-09-17T12:22:27.501Z,382.50
2018-09-17T12:23:27.488Z,382.50
2018-09-17T12:24:27.486Z,376.88
2018-09-17T12:25:27.473Z,376.88
2018-09-17T12:26:27.460Z,371.25
2018-09-17T12:27:27.452Z,371.25
2018-09-17T12:28:27.449Z,371.25
2018-09-17T12:29:27.435Z,371.25
2018-09-17T12:30:27.428Z,365.63
2018-09-17T12:31:27.415Z,360.00
2018-09-17T12:32:27.404Z,360.00
2018-09-17T12:33:27.409Z,360.00
2018-09-17T12:34:27.395Z,354.38
2018-09-17T12:35:27.379Z,354.38
2018-09-17T12:36:27.367Z,343.13
2018-09-17T12:37:27.358Z,348.75
2018-09-17T12:38:27.348Z,337.50
2018-09-17T12:39:27.338Z,337.50
2018-09-17T12:40:27.341Z,331.88
2018-09-17T12:41:27.322Z,326.25
2018-09-17T12:42:27.310Z,320.63
2018-09-17T12:43:27.307Z,320.63
2018-09-17T12:44:27.289Z,315.00
2018-09-17T12:45:27.282Z,315.00
2018-09-17T12:46:27.274Z,309.38
2018-09-17T12:47:27.261Z,303.75
2018-09-17T12:48:27.258Z,303.75